sensor_id;sensor_type;location;lat;lon;timestamp;temperature;humidity
25482;DHT22;13395;50.752;4.268;2022-09-12T00:02:21;15.90;99.90
25482;DHT22;13395;50.752;4.268;2022-09-12T00:04:47;15.80;99.90
25482;DHT22;13395;50.752;4.268;2022-09-12T00:07:12;15.80;99.90
25482;DHT22;13395;50.752;4.268;2022-09-12T00:09:38;15.70;99.90
25482;DHT22;13395;50.752;4.268;2022-09-12T00:12:03;15.80;99.90
25482;DHT22;13395;50.752;4.268;2022-09-12T00:14:29;15.70;99.90
25482;DHT22;13395;50.752;4.268;2022-09-12T00:16:58;15.70;99.90
25482;DHT22;13395;50.752;4.268;2022-09-12T00:19:27;15.70;99.90
25482;DHT22;13395;50.752;4.268;2022-09-12T00:21:53;15.70;99.90
25482;DHT22;13395;50.752;4.268;2022-09-12T00:24:18;15.60;99.90
25482;DHT22;13395;50.752;4.268;2022-09-12T00:26:44;15.60;99.90
25482;DHT22;13395;50.752;4.268;2022-09-12T00:29:13;15.60;99.90
25482;DHT22;13395;50.752;4.268;2022-09-12T00:31:39;15.60;99.90
25482;DHT22;13395;50.752;4.268;2022-09-12T00:34:05;15.60;99.90
25482;DHT22;13395;50.752;4.268;2022-09-12T00:36:30;15.50;99.90
25482;DHT22;13395;50.752;4.268;2022-09-12T00:38:56;15.50;99.90
25482;DHT22;13395;50.752;4.268;2022-09-12T00:41:23;15.50;99.90
25482;DHT22;13395;50.752;4.268;2022-09-12T00:43:53;15.50;99.90
25482;DHT22;13395;50.752;4.268;2022-09-12T00:46:40;15.40;99.90
25482;DHT22;13395;50.752;4.268;2022-09-12T00:49:25;15.30;99.90
25482;DHT22;13395;50.752;4.268;2022-09-12T00:51:54;15.40;99.90
25482;DHT22;13395;50.752;4.268;2022-09-12T00:54:23;15.30;99.90
25482;DHT22;13395;50.752;4.268;2022-09-12T00:56:50;15.30;99.90
25482;DHT22;13395;50.752;4.268;2022-09-12T00:59:18;15.30;99.90
25482;DHT22;13395;50.752;4.268;2022-09-12T01:01:45;15.30;99.90
25482;DHT22;13395;50.752;4.268;2022-09-12T01:04:12;15.30;99.90
25482;DHT22;13395;50.752;4.268;2022-09-12T01:06:39;15.20;99.90
25482;DHT22;13395;50.752;4.268;2022-09-12T01:09:05;15.10;99.90
25482;DHT22;13395;50.752;4.268;2022-09-12T01:11:31;15.10;99.90
25482;DHT22;13395;50.752;4.268;2022-09-12T01:13:58;15.10;99.90
25482;DHT22;13395;50.752;4.268;2022-09-12T01:16:24;15.10;99.90
25482;DHT22;13395;50.752;4.268;2022-09-12T01:32:12;15.00;99.90
25482;DHT22;13395;50.752;4.268;2022-09-12T01:34:48;15.00;99.90
25482;DHT22;13395;50.752;4.268;2022-09-12T01:37:28;15.00;99.90
25482;DHT22;13395;50.752;4.268;2022-09-12T01:45:25;15.00;99.90
25482;DHT22;13395;50.752;4.268;2022-09-12T01:47:57;15.00;99.90
25482;DHT22;13395;50.752;4.268;2022-09-12T01:50:27;15.00;99.90
25482;DHT22;13395;50.752;4.268;2022-09-12T01:52:59;15.00;99.90
25482;DHT22;13395;50.752;4.268;2022-09-12T02:00:17;14.90;99.90
25482;DHT22;13395;50.752;4.268;2022-09-12T02:03:00;14.80;99.90
25482;DHT22;13395;50.752;4.268;2022-09-12T02:05:38;14.80;99.90
25482;DHT22;13395;50.752;4.268;2022-09-12T02:08:12;14.80;99.90
25482;DHT22;13395;50.752;4.268;2022-09-12T02:10:58;14.90;99.90
25482;DHT22;13395;50.752;4.268;2022-09-12T02:13:26;14.80;99.90
25482;DHT22;13395;50.752;4.268;2022-09-12T02:18:46;14.80;99.90
25482;DHT22;13395;50.752;4.268;2022-09-12T02:21:14;14.70;99.90
25482;DHT22;13395;50.752;4.268;2022-09-12T02:23:42;14.80;99.90
25482;DHT22;13395;50.752;4.268;2022-09-12T02:26:11;14.70;99.90
25482;DHT22;13395;50.752;4.268;2022-09-12T02:28:38;14.70;99.90
25482;DHT22;13395;50.752;4.268;2022-09-12T02:31:12;14.70;99.90
25482;DHT22;13395;50.752;4.268;2022-09-12T02:36:10;14.60;99.90
25482;DHT22;13395;50.752;4.268;2022-09-12T02:38:47;14.60;99.90
25482;DHT22;13395;50.752;4.268;2022-09-12T02:41:14;14.60;99.90
25482;DHT22;13395;50.752;4.268;2022-09-12T02:43:40;14.50;99.90
25482;DHT22;13395;50.752;4.268;2022-09-12T02:46:07;14.50;99.90
25482;DHT22;13395;50.752;4.268;2022-09-12T02:48:35;14.50;99.90
25482;DHT22;13395;50.752;4.268;2022-09-12T02:51:02;14.50;99.90
25482;DHT22;13395;50.752;4.268;2022-09-12T02:53:28;14.60;99.90
25482;DHT22;13395;50.752;4.268;2022-09-12T02:55:53;14.50;99.90
25482;DHT22;13395;50.752;4.268;2022-09-12T02:58:23;14.50;99.90
25482;DHT22;13395;50.752;4.268;2022-09-12T03:06:12;14.40;99.90
25482;DHT22;13395;50.752;4.268;2022-09-12T03:08:58;14.40;99.90
25482;DHT22;13395;50.752;4.268;2022-09-12T03:19:32;14.30;99.90
25482;DHT22;13395;50.752;4.268;2022-09-12T03:24:34;14.20;99.90
25482;DHT22;13395;50.752;4.268;2022-09-12T03:27:12;14.20;99.90
25482;DHT22;13395;50.752;4.268;2022-09-12T03:29:40;14.20;99.90
25482;DHT22;13395;50.752;4.268;2022-09-12T03:32:06;14.10;99.90
25482;DHT22;13395;50.752;4.268;2022-09-12T03:34:32;14.10;99.90
25482;DHT22;13395;50.752;4.268;2022-09-12T03:36:57;14.10;99.90
25482;DHT22;13395;50.752;4.268;2022-09-12T03:39:24;14.10;99.90
25482;DHT22;13395;50.752;4.268;2022-09-12T03:41:51;14.10;99.90
25482;DHT22;13395;50.752;4.268;2022-09-12T03:44:17;14.10;99.90
25482;DHT22;13395;50.752;4.268;2022-09-12T03:46:43;14.10;99.90
25482;DHT22;13395;50.752;4.268;2022-09-12T03:49:09;14.20;99.90
25482;DHT22;13395;50.752;4.268;2022-09-12T03:51:35;14.20;99.90
25482;DHT22;13395;50.752;4.268;2022-09-12T03:54:00;14.20;99.90
25482;DHT22;13395;50.752;4.268;2022-09-12T03:56:26;14.20;99.90
25482;DHT22;13395;50.752;4.268;2022-09-12T03:58:51;14.20;99.90
25482;DHT22;13395;50.752;4.268;2022-09-12T04:01:17;14.20;99.90
25482;DHT22;13395;50.752;4.268;2022-09-12T04:03:44;14.30;99.90
25482;DHT22;13395;50.752;4.268;2022-09-12T04:06:11;14.30;99.90
25482;DHT22;13395;50.752;4.268;2022-09-12T04:08:37;14.30;99.90
25482;DHT22;13395;50.752;4.268;2022-09-12T04:11:03;14.30;99.90
25482;DHT22;13395;50.752;4.268;2022-09-12T04:13:29;14.30;99.90
25482;DHT22;13395;50.752;4.268;2022-09-12T04:15:58;14.30;99.90
25482;DHT22;13395;50.752;4.268;2022-09-12T04:18:25;14.30;99.90
25482;DHT22;13395;50.752;4.268;2022-09-12T04:20:51;14.30;99.90
25482;DHT22;13395;50.752;4.268;2022-09-12T04:23:16;14.30;99.90
25482;DHT22;13395;50.752;4.268;2022-09-12T04:25:42;14.20;99.90
25482;DHT22;13395;50.752;4.268;2022-09-12T04:28:07;14.20;99.90
25482;DHT22;13395;50.752;4.268;2022-09-12T04:30:33;14.20;99.90
25482;DHT22;13395;50.752;4.268;2022-09-12T04:32:58;14.30;99.90
25482;DHT22;13395;50.752;4.268;2022-09-12T04:35:24;14.20;99.90
25482;DHT22;13395;50.752;4.268;2022-09-12T04:37:49;14.30;99.90
25482;DHT22;13395;50.752;4.268;2022-09-12T04:40:15;14.30;99.90
25482;DHT22;13395;50.752;4.268;2022-09-12T04:42:40;14.30;99.90
25482;DHT22;13395;50.752;4.268;2022-09-12T04:45:06;14.30;99.90
25482;DHT22;13395;50.752;4.268;2022-09-12T04:47:32;14.30;99.90
25482;DHT22;13395;50.752;4.268;2022-09-12T04:49:57;14.40;99.90
25482;DHT22;13395;50.752;4.268;2022-09-12T04:52:23;14.50;99.90
25482;DHT22;13395;50.752;4.268;2022-09-12T04:54:48;14.60;99.90
25482;DHT22;13395;50.752;4.268;2022-09-12T04:57:14;14.60;99.90
25482;DHT22;13395;50.752;4.268;2022-09-12T04:59:40;14.50;99.90
25482;DHT22;13395;50.752;4.268;2022-09-12T05:02:05;14.50;99.90
25482;DHT22;13395;50.752;4.268;2022-09-12T05:04:31;14.40;99.90
25482;DHT22;13395;50.752;4.268;2022-09-12T05:06:56;14.40;99.90
25482;DHT22;13395;50.752;4.268;2022-09-12T05:09:22;14.40;99.90
25482;DHT22;13395;50.752;4.268;2022-09-12T05:11:48;14.40;99.90
25482;DHT22;13395;50.752;4.268;2022-09-12T05:14:13;14.40;99.90
25482;DHT22;13395;50.752;4.268;2022-09-12T05:16:39;14.50;99.90
25482;DHT22;13395;50.752;4.268;2022-09-12T05:19:05;14.40;99.90
25482;DHT22;13395;50.752;4.268;2022-09-12T05:21:31;14.30;99.90
25482;DHT22;13395;50.752;4.268;2022-09-12T05:23:57;14.30;99.90
25482;DHT22;13395;50.752;4.268;2022-09-12T05:26:24;14.40;99.90
25482;DHT22;13395;50.752;4.268;2022-09-12T05:28:50;14.40;99.90
25482;DHT22;13395;50.752;4.268;2022-09-12T05:31:17;14.50;99.90
25482;DHT22;13395;50.752;4.268;2022-09-12T05:33:43;14.40;99.90
25482;DHT22;13395;50.752;4.268;2022-09-12T05:36:13;14.30;99.90
25482;DHT22;13395;50.752;4.268;2022-09-12T05:38:39;14.30;99.90
25482;DHT22;13395;50.752;4.268;2022-09-12T05:41:08;14.30;99.90
25482;DHT22;13395;50.752;4.268;2022-09-12T05:43:34;14.30;99.90
25482;DHT22;13395;50.752;4.268;2022-09-12T05:46:06;14.40;99.90
25482;DHT22;13395;50.752;4.268;2022-09-12T05:48:35;14.50;99.90
25482;DHT22;13395;50.752;4.268;2022-09-12T05:51:01;14.50;99.90
25482;DHT22;13395;50.752;4.268;2022-09-12T05:53:28;14.50;99.90
25482;DHT22;13395;50.752;4.268;2022-09-12T05:56:27;14.40;99.90
25482;DHT22;13395;50.752;4.268;2022-09-12T05:58:47;14.30;99.90
25482;DHT22;13395;50.752;4.268;2022-09-12T06:01:16;14.20;99.90
25482;DHT22;13395;50.752;4.268;2022-09-12T06:03:46;14.10;99.90
25482;DHT22;13395;50.752;4.268;2022-09-12T06:06:13;14.20;99.90
25482;DHT22;13395;50.752;4.268;2022-09-12T06:08:39;14.30;99.90
25482;DHT22;13395;50.752;4.268;2022-09-12T06:11:06;14.40;99.90
25482;DHT22;13395;50.752;4.268;2022-09-12T06:13:32;14.30;99.90
25482;DHT22;13395;50.752;4.268;2022-09-12T06:16:18;14.30;99.90
25482;DHT22;13395;50.752;4.268;2022-09-12T06:18:53;14.30;99.90
25482;DHT22;13395;50.752;4.268;2022-09-12T06:21:19;14.30;99.90
25482;DHT22;13395;50.752;4.268;2022-09-12T06:23:45;14.30;99.90
25482;DHT22;13395;50.752;4.268;2022-09-12T06:26:11;14.30;99.90
25482;DHT22;13395;50.752;4.268;2022-09-12T06:28:39;14.40;99.90
25482;DHT22;13395;50.752;4.268;2022-09-12T06:31:07;14.40;99.90
25482;DHT22;13395;50.752;4.268;2022-09-12T06:33:33;14.40;99.90
25482;DHT22;13395;50.752;4.268;2022-09-12T06:36:06;14.60;99.90
25482;DHT22;13395;50.752;4.268;2022-09-12T06:38:33;14.70;99.90
25482;DHT22;13395;50.752;4.268;2022-09-12T06:40:58;14.90;99.90
25482;DHT22;13395;50.752;4.268;2022-09-12T06:43:25;15.60;99.90
25482;DHT22;13395;50.752;4.268;2022-09-12T06:45:50;17.20;99.90
25482;DHT22;13395;50.752;4.268;2022-09-12T06:48:16;18.90;99.90
25482;DHT22;13395;50.752;4.268;2022-09-12T06:50:42;20.50;99.90
25482;DHT22;13395;50.752;4.268;2022-09-12T06:53:07;22.10;99.90
25482;DHT22;13395;50.752;4.268;2022-09-12T06:55:33;23.60;99.90
25482;DHT22;13395;50.752;4.268;2022-09-12T06:57:59;24.40;99.90
25482;DHT22;13395;50.752;4.268;2022-09-12T07:00:24;24.60;99.90
25482;DHT22;13395;50.752;4.268;2022-09-12T07:02:56;23.90;99.90
25482;DHT22;13395;50.752;4.268;2022-09-12T07:05:21;23.00;99.90
25482;DHT22;13395;50.752;4.268;2022-09-12T07:07:47;22.10;99.90
25482;DHT22;13395;50.752;4.268;2022-09-12T07:10:13;21.90;99.90
25482;DHT22;13395;50.752;4.268;2022-09-12T07:12:38;21.90;99.90
25482;DHT22;13395;50.752;4.268;2022-09-12T07:15:04;22.40;99.90
25482;DHT22;13395;50.752;4.268;2022-09-12T07:17:30;23.20;99.90
25482;DHT22;13395;50.752;4.268;2022-09-12T07:19:56;24.10;99.90
25482;DHT22;13395;50.752;4.268;2022-09-12T07:22:21;24.70;99.90
25482;DHT22;13395;50.752;4.268;2022-09-12T07:24:47;24.10;99.90
25482;DHT22;13395;50.752;4.268;2022-09-12T07:27:12;23.90;99.90
25482;DHT22;13395;50.752;4.268;2022-09-12T07:29:38;23.00;99.90
25482;DHT22;13395;50.752;4.268;2022-09-12T07:32:04;23.70;99.90
25482;DHT22;13395;50.752;4.268;2022-09-12T07:34:30;25.60;99.90
25482;DHT22;13395;50.752;4.268;2022-09-12T07:36:55;27.10;99.90
25482;DHT22;13395;50.752;4.268;2022-09-12T07:39:21;27.40;98.70
25482;DHT22;13395;50.752;4.268;2022-09-12T07:41:46;27.80;96.60
25482;DHT22;13395;50.752;4.268;2022-09-12T07:44:12;27.90;95.00
25482;DHT22;13395;50.752;4.268;2022-09-12T07:46:37;28.40;94.50
25482;DHT22;13395;50.752;4.268;2022-09-12T07:49:04;28.70;92.80
25482;DHT22;13395;50.752;4.268;2022-09-12T07:51:29;29.20;92.30
25482;DHT22;13395;50.752;4.268;2022-09-12T07:53:56;29.60;90.90
25482;DHT22;13395;50.752;4.268;2022-09-12T07:56:22;30.40;90.30
25482;DHT22;13395;50.752;4.268;2022-09-12T07:58:48;30.80;84.80
25482;DHT22;13395;50.752;4.268;2022-09-12T08:01:15;31.10;86.60
25482;DHT22;13395;50.752;4.268;2022-09-12T08:03:41;31.70;85.30
25482;DHT22;13395;50.752;4.268;2022-09-12T08:06:08;32.70;83.30
25482;DHT22;13395;50.752;4.268;2022-09-12T08:08:34;33.10;76.60
25482;DHT22;13395;50.752;4.268;2022-09-12T08:11:01;33.40;78.60
25482;DHT22;13395;50.752;4.268;2022-09-12T08:13:28;33.70;77.30
25482;DHT22;13395;50.752;4.268;2022-09-12T08:15:57;33.20;73.20
25482;DHT22;13395;50.752;4.268;2022-09-12T08:18:24;32.90;72.70
25482;DHT22;13395;50.752;4.268;2022-09-12T08:20:54;32.60;71.70
25482;DHT22;13395;50.752;4.268;2022-09-12T08:23:20;33.10;72.40
25482;DHT22;13395;50.752;4.268;2022-09-12T08:25:47;33.20;74.70
25482;DHT22;13395;50.752;4.268;2022-09-12T08:28:14;33.10;74.30
25482;DHT22;13395;50.752;4.268;2022-09-12T08:30:39;32.80;72.70
25482;DHT22;13395;50.752;4.268;2022-09-12T08:33:05;33.10;73.70
25482;DHT22;13395;50.752;4.268;2022-09-12T08:35:32;33.70;71.60
25482;DHT22;13395;50.752;4.268;2022-09-12T08:37:57;34.40;71.60
25482;DHT22;13395;50.752;4.268;2022-09-12T08:40:23;34.90;68.70
25482;DHT22;13395;50.752;4.268;2022-09-12T08:45:16;35.90;66.90
25482;DHT22;13395;50.752;4.268;2022-09-12T08:47:44;36.30;64.70
25482;DHT22;13395;50.752;4.268;2022-09-12T08:50:13;36.60;63.30
25482;DHT22;13395;50.752;4.268;2022-09-12T08:52:50;37.10;60.50
25482;DHT22;13395;50.752;4.268;2022-09-12T08:55:24;37.80;60.40
25482;DHT22;13395;50.752;4.268;2022-09-12T08:57:51;38.20;59.40
25482;DHT22;13395;50.752;4.268;2022-09-12T09:00:16;38.20;56.70
25482;DHT22;13395;50.752;4.268;2022-09-12T09:05:23;38.30;54.90
25482;DHT22;13395;50.752;4.268;2022-09-12T09:10:48;37.90;54.40
25482;DHT22;13395;50.752;4.268;2022-09-12T09:13:26;38.20;54.50
25482;DHT22;13395;50.752;4.268;2022-09-12T09:16:16;38.60;52.90
25482;DHT22;13395;50.752;4.268;2022-09-12T09:18:45;38.30;52.70
25482;DHT22;13395;50.752;4.268;2022-09-12T09:21:20;37.70;53.00
25482;DHT22;13395;50.752;4.268;2022-09-12T09:23:47;38.70;53.70
25482;DHT22;13395;50.752;4.268;2022-09-12T09:28:50;40.00;51.80
25482;DHT22;13395;50.752;4.268;2022-09-12T09:31:17;39.80;52.80
25482;DHT22;13395;50.752;4.268;2022-09-12T09:33:43;39.90;50.30
25482;DHT22;13395;50.752;4.268;2022-09-12T09:43:45;40.00;49.80
25482;DHT22;13395;50.752;4.268;2022-09-12T09:46:10;39.60;49.80
25482;DHT22;13395;50.752;4.268;2022-09-12T09:48:36;39.90;50.50
25482;DHT22;13395;50.752;4.268;2022-09-12T09:51:04;40.50;47.20
25482;DHT22;13395;50.752;4.268;2022-09-12T09:53:40;40.90;49.90
25482;DHT22;13395;50.752;4.268;2022-09-12T09:56:17;40.30;49.70
25482;DHT22;13395;50.752;4.268;2022-09-12T09:58:45;40.80;47.70
25482;DHT22;13395;50.752;4.268;2022-09-12T10:01:11;41.30;47.50
25482;DHT22;13395;50.752;4.268;2022-09-12T10:03:38;41.40;47.80
25482;DHT22;13395;50.752;4.268;2022-09-12T10:06:21;41.90;44.60
25482;DHT22;13395;50.752;4.268;2022-09-12T10:08:47;42.00;44.50
25482;DHT22;13395;50.752;4.268;2022-09-12T10:11:17;42.70;43.20
25482;DHT22;13395;50.752;4.268;2022-09-12T10:18:44;42.10;43.70
25482;DHT22;13395;50.752;4.268;2022-09-12T10:21:20;41.80;46.50
25482;DHT22;13395;50.752;4.268;2022-09-12T10:23:50;41.30;43.90
25482;DHT22;13395;50.752;4.268;2022-09-12T10:26:17;40.40;44.70
25482;DHT22;13395;50.752;4.268;2022-09-12T10:31:09;41.80;45.40
25482;DHT22;13395;50.752;4.268;2022-09-12T10:33:42;41.90;45.20
25482;DHT22;13395;50.752;4.268;2022-09-12T10:36:08;42.90;44.40
25482;DHT22;13395;50.752;4.268;2022-09-12T10:38:33;43.10;43.70
25482;DHT22;13395;50.752;4.268;2022-09-12T10:41:00;43.10;42.10
25482;DHT22;13395;50.752;4.268;2022-09-12T10:43:37;42.80;40.80
25482;DHT22;13395;50.752;4.268;2022-09-12T10:48:42;42.00;41.90
25482;DHT22;13395;50.752;4.268;2022-09-12T10:51:14;42.40;43.80
25482;DHT22;13395;50.752;4.268;2022-09-12T10:53:56;42.70;41.50
25482;DHT22;13395;50.752;4.268;2022-09-12T10:56:33;42.90;41.00
25482;DHT22;13395;50.752;4.268;2022-09-12T11:03:55;42.90;40.80
25482;DHT22;13395;50.752;4.268;2022-09-12T11:06:31;42.80;41.20
25482;DHT22;13395;50.752;4.268;2022-09-12T11:11:44;41.80;42.10
25482;DHT22;13395;50.752;4.268;2022-09-12T11:21:55;41.60;40.10
25482;DHT22;13395;50.752;4.268;2022-09-12T11:27:09;41.90;41.90
25482;DHT22;13395;50.752;4.268;2022-09-12T11:37:28;42.10;39.40
25482;DHT22;13395;50.752;4.268;2022-09-12T11:40:01;41.70;40.90
25482;DHT22;13395;50.752;4.268;2022-09-12T11:42:32;41.50;41.10
25482;DHT22;13395;50.752;4.268;2022-09-12T11:45:15;41.90;40.00
25482;DHT22;13395;50.752;4.268;2022-09-12T11:47:47;42.60;41.90
25482;DHT22;13395;50.752;4.268;2022-09-12T11:50:19;43.40;39.50
25482;DHT22;13395;50.752;4.268;2022-09-12T11:52:45;44.10;38.80
25482;DHT22;13395;50.752;4.268;2022-09-12T11:55:15;43.60;38.10
25482;DHT22;13395;50.752;4.268;2022-09-12T12:00:15;42.40;37.80
25482;DHT22;13395;50.752;4.268;2022-09-12T12:08:16;42.00;39.30
25482;DHT22;13395;50.752;4.268;2022-09-12T12:10:42;41.50;39.10
25482;DHT22;13395;50.752;4.268;2022-09-12T12:13:14;41.60;39.80
25482;DHT22;13395;50.752;4.268;2022-09-12T12:16:00;40.90;39.20
25482;DHT22;13395;50.752;4.268;2022-09-12T12:18:28;41.00;41.90
25482;DHT22;13395;50.752;4.268;2022-09-12T12:20:55;41.20;40.30
25482;DHT22;13395;50.752;4.268;2022-09-12T12:23:31;41.10;40.00
25482;DHT22;13395;50.752;4.268;2022-09-12T12:25:59;40.50;39.80
25482;DHT22;13395;50.752;4.268;2022-09-12T12:31:05;41.20;40.10
25482;DHT22;13395;50.752;4.268;2022-09-12T12:38:29;42.20;39.40
25482;DHT22;13395;50.752;4.268;2022-09-12T12:43:40;41.30;40.60
25482;DHT22;13395;50.752;4.268;2022-09-12T12:46:07;41.60;40.00
25482;DHT22;13395;50.752;4.268;2022-09-12T12:48:34;41.50;39.80
25482;DHT22;13395;50.752;4.268;2022-09-12T12:51:14;41.90;40.70
25482;DHT22;13395;50.752;4.268;2022-09-12T12:53:41;41.90;37.80
25482;DHT22;13395;50.752;4.268;2022-09-12T12:56:19;41.70;38.60
25482;DHT22;13395;50.752;4.268;2022-09-12T12:58:50;40.90;38.30
25482;DHT22;13395;50.752;4.268;2022-09-12T13:01:21;40.40;40.50
25482;DHT22;13395;50.752;4.268;2022-09-12T13:06:38;40.60;39.90
25482;DHT22;13395;50.752;4.268;2022-09-12T13:09:08;40.20;42.30
25482;DHT22;13395;50.752;4.268;2022-09-12T13:11:44;40.30;41.10
25482;DHT22;13395;50.752;4.268;2022-09-12T13:16:54;39.90;42.50
25482;DHT22;13395;50.752;4.268;2022-09-12T13:19:26;40.00;42.90
25482;DHT22;13395;50.752;4.268;2022-09-12T13:21:56;40.00;42.00
25482;DHT22;13395;50.752;4.268;2022-09-12T13:24:23;40.10;41.90
25482;DHT22;13395;50.752;4.268;2022-09-12T13:26:50;40.20;40.50
25482;DHT22;13395;50.752;4.268;2022-09-12T13:29:16;39.80;41.80
25482;DHT22;13395;50.752;4.268;2022-09-12T13:31:43;39.20;43.90
25482;DHT22;13395;50.752;4.268;2022-09-12T13:34:09;38.50;41.80
25482;DHT22;13395;50.752;4.268;2022-09-12T13:44:10;33.70;48.30
25482;DHT22;13395;50.752;4.268;2022-09-12T13:46:37;33.70;47.80
25482;DHT22;13395;50.752;4.268;2022-09-12T13:49:12;33.50;48.30
25482;DHT22;13395;50.752;4.268;2022-09-12T13:51:40;33.30;48.40
25482;DHT22;13395;50.752;4.268;2022-09-12T13:54:07;33.20;49.00
25482;DHT22;13395;50.752;4.268;2022-09-12T13:56:47;33.00;51.60
25482;DHT22;13395;50.752;4.268;2022-09-12T13:59:13;32.60;48.80
25482;DHT22;13395;50.752;4.268;2022-09-12T14:01:40;32.60;50.10
25482;DHT22;13395;50.752;4.268;2022-09-12T14:06:59;32.40;50.00
25482;DHT22;13395;50.752;4.268;2022-09-12T14:11:53;32.10;50.90
25482;DHT22;13395;50.752;4.268;2022-09-12T14:14:24;32.10;51.60
25482;DHT22;13395;50.752;4.268;2022-09-12T14:16:52;32.00;51.30
25482;DHT22;13395;50.752;4.268;2022-09-12T14:19:17;31.90;50.20
25482;DHT22;13395;50.752;4.268;2022-09-12T14:21:43;31.60;51.50
25482;DHT22;13395;50.752;4.268;2022-09-12T14:24:10;31.60;52.30
25482;DHT22;13395;50.752;4.268;2022-09-12T14:26:36;31.50;50.80
25482;DHT22;13395;50.752;4.268;2022-09-12T14:29:04;31.40;52.20
25482;DHT22;13395;50.752;4.268;2022-09-12T14:31:31;31.40;54.20
25482;DHT22;13395;50.752;4.268;2022-09-12T14:34:08;31.40;53.50
25482;DHT22;13395;50.752;4.268;2022-09-12T14:36:36;31.40;52.70
25482;DHT22;13395;50.752;4.268;2022-09-12T14:39:04;31.30;52.80
25482;DHT22;13395;50.752;4.268;2022-09-12T14:41:32;31.10;54.50
25482;DHT22;13395;50.752;4.268;2022-09-12T14:43:59;31.00;52.90
25482;DHT22;13395;50.752;4.268;2022-09-12T14:49:07;30.90;53.90
25482;DHT22;13395;50.752;4.268;2022-09-12T14:51:36;30.80;52.90
25482;DHT22;13395;50.752;4.268;2022-09-12T14:54:02;30.90;54.10
25482;DHT22;13395;50.752;4.268;2022-09-12T14:56:44;30.80;54.30
25482;DHT22;13395;50.752;4.268;2022-09-12T15:01:48;30.60;53.80
25482;DHT22;13395;50.752;4.268;2022-09-12T15:04:36;30.70;54.20
25482;DHT22;13395;50.752;4.268;2022-09-12T15:06:59;30.50;54.10
25482;DHT22;13395;50.752;4.268;2022-09-12T15:09:37;30.50;52.50
25482;DHT22;13395;50.752;4.268;2022-09-12T15:12:03;30.30;55.60
25482;DHT22;13395;50.752;4.268;2022-09-12T15:14:28;30.30;54.40
25482;DHT22;13395;50.752;4.268;2022-09-12T15:16:54;30.20;54.50
25482;DHT22;13395;50.752;4.268;2022-09-12T15:19:19;30.10;54.80
25482;DHT22;13395;50.752;4.268;2022-09-12T15:21:45;30.10;53.30
25482;DHT22;13395;50.752;4.268;2022-09-12T15:24:10;30.10;52.80
25482;DHT22;13395;50.752;4.268;2022-09-12T15:26:36;30.10;54.50
25482;DHT22;13395;50.752;4.268;2022-09-12T15:29:01;29.90;54.70
25482;DHT22;13395;50.752;4.268;2022-09-12T15:31:29;29.60;55.40
25482;DHT22;13395;50.752;4.268;2022-09-12T15:33:55;29.50;54.40
25482;DHT22;13395;50.752;4.268;2022-09-12T15:36:21;29.40;56.00
25482;DHT22;13395;50.752;4.268;2022-09-12T15:38:48;29.40;54.90
25482;DHT22;13395;50.752;4.268;2022-09-12T15:41:17;29.40;55.50
25482;DHT22;13395;50.752;4.268;2022-09-12T15:43:43;29.40;55.70
25482;DHT22;13395;50.752;4.268;2022-09-12T15:46:10;29.40;56.00
25482;DHT22;13395;50.752;4.268;2022-09-12T15:48:36;29.30;55.80
25482;DHT22;13395;50.752;4.268;2022-09-12T15:51:01;29.10;55.60
25482;DHT22;13395;50.752;4.268;2022-09-12T15:53:29;29.10;57.00
25482;DHT22;13395;50.752;4.268;2022-09-12T15:55:55;29.10;56.00
25482;DHT22;13395;50.752;4.268;2022-09-12T15:58:20;29.10;56.70
25482;DHT22;13395;50.752;4.268;2022-09-12T16:00:46;29.20;57.60
25482;DHT22;13395;50.752;4.268;2022-09-12T16:03:25;29.30;57.10
25482;DHT22;13395;50.752;4.268;2022-09-12T16:05:55;29.20;56.90
25482;DHT22;13395;50.752;4.268;2022-09-12T16:08:21;29.00;56.90
25482;DHT22;13395;50.752;4.268;2022-09-12T16:10:46;28.90;58.10
25482;DHT22;13395;50.752;4.268;2022-09-12T16:13:14;28.80;59.40
25482;DHT22;13395;50.752;4.268;2022-09-12T16:15:40;28.80;57.50
25482;DHT22;13395;50.752;4.268;2022-09-12T16:18:06;28.80;61.00
25482;DHT22;13395;50.752;4.268;2022-09-12T16:20:32;28.70;59.10
25482;DHT22;13395;50.752;4.268;2022-09-12T16:22:57;28.70;59.80
25482;DHT22;13395;50.752;4.268;2022-09-12T16:25:23;28.70;58.90
25482;DHT22;13395;50.752;4.268;2022-09-12T16:27:49;28.80;61.20
25482;DHT22;13395;50.752;4.268;2022-09-12T16:30:15;28.70;58.10
25482;DHT22;13395;50.752;4.268;2022-09-12T16:32:40;28.80;57.80
25482;DHT22;13395;50.752;4.268;2022-09-12T16:35:06;28.80;57.50
25482;DHT22;13395;50.752;4.268;2022-09-12T16:37:32;28.90;56.70
25482;DHT22;13395;50.752;4.268;2022-09-12T16:39:59;28.90;55.20
25482;DHT22;13395;50.752;4.268;2022-09-12T16:42:24;29.00;56.40
25482;DHT22;13395;50.752;4.268;2022-09-12T16:44:50;28.90;56.10
25482;DHT22;13395;50.752;4.268;2022-09-12T16:47:15;28.80;56.40
25482;DHT22;13395;50.752;4.268;2022-09-12T16:49:41;28.90;56.10
25482;DHT22;13395;50.752;4.268;2022-09-12T16:52:06;28.80;56.50
25482;DHT22;13395;50.752;4.268;2022-09-12T16:54:32;28.70;57.30
25482;DHT22;13395;50.752;4.268;2022-09-12T16:56:58;28.50;56.80
25482;DHT22;13395;50.752;4.268;2022-09-12T16:59:24;28.60;57.00
25482;DHT22;13395;50.752;4.268;2022-09-12T17:01:50;28.50;56.30
25482;DHT22;13395;50.752;4.268;2022-09-12T17:04:16;28.50;57.40
25482;DHT22;13395;50.752;4.268;2022-09-12T17:06:41;28.40;58.60
25482;DHT22;13395;50.752;4.268;2022-09-12T17:09:08;28.40;59.80
25482;DHT22;13395;50.752;4.268;2022-09-12T17:11:36;28.20;63.30
25482;DHT22;13395;50.752;4.268;2022-09-12T17:14:03;28.10;61.30
25482;DHT22;13395;50.752;4.268;2022-09-12T17:16:31;28.00;61.00
25482;DHT22;13395;50.752;4.268;2022-09-12T17:18:57;28.00;59.80
25482;DHT22;13395;50.752;4.268;2022-09-12T17:21:22;27.90;62.50
25482;DHT22;13395;50.752;4.268;2022-09-12T17:23:48;27.80;62.60
25482;DHT22;13395;50.752;4.268;2022-09-12T17:26:14;27.70;65.50
25482;DHT22;13395;50.752;4.268;2022-09-12T17:28:40;27.50;64.50
25482;DHT22;13395;50.752;4.268;2022-09-12T17:31:07;27.50;65.00
25482;DHT22;13395;50.752;4.268;2022-09-12T17:33:34;27.50;67.50
25482;DHT22;13395;50.752;4.268;2022-09-12T17:36:00;27.30;65.80
25482;DHT22;13395;50.752;4.268;2022-09-12T17:38:26;27.10;63.30
25482;DHT22;13395;50.752;4.268;2022-09-12T17:40:52;27.10;65.50
25482;DHT22;13395;50.752;4.268;2022-09-12T17:43:18;27.00;64.40
25482;DHT22;13395;50.752;4.268;2022-09-12T17:45:43;26.90;64.30
25482;DHT22;13395;50.752;4.268;2022-09-12T17:48:09;26.80;65.30
25482;DHT22;13395;50.752;4.268;2022-09-12T17:50:36;26.70;64.80
25482;DHT22;13395;50.752;4.268;2022-09-12T17:53:02;26.60;65.40
25482;DHT22;13395;50.752;4.268;2022-09-12T17:55:28;26.60;67.70
25482;DHT22;13395;50.752;4.268;2022-09-12T17:57:59;26.40;69.10